Time;durP1;ratioP1;P1;durP2;ratioP2;P2;SDS_P1;SDS_P2;PMS_P1;PMS_P2;Temp;Humidity;BMP_temperature;BMP_pressure;BME280_temperature;BME280_humidity;BME280_pressure;Samples;Min_cycle;Max_cycle;Signal;HPM_P1;HPM_P2
2023/01/17 00:03:28;;;;;;;4.70;2.30;;;;;;;;;;10293855;28;20042;-89
2023/01/17 00:13:59;;;;;;;5.32;2.40;;;;;;;;;;10290835;28;20048;-91
2023/01/17 01:38:28;;;;;;;5.68;2.30;;;;;;;;;;10292707;28;20047;-84
2023/01/17 01:43:46;;;;;;;3.90;1.90;;;;;;;;;;10313964;28;20069;-86
2023/01/17 01:48:54;;;;;;;4.22;1.90;;;;;;;;;;10300261;28;20518;-87
2023/01/17 01:54:05;;;;;;;7.18;1.90;;;;;;;;;;10301595;28;20361;-87
2023/01/17 01:59:13;;;;;;;3.90;1.70;;;;;;;;;;10298134;28;20057;-85
2023/01/17 02:04:17;;;;;;;;;;;;;;;;;;10292839;28;20034;-85
2023/01/17 02:09:23;;;;;;;4.97;1.90;;;;;;;;;;10291967;28;20494;-85
2023/01/17 02:14:28;;;;;;;2.70;1.70;;;;;;;;;;10290783;28;20145;-84
2023/01/17 02:20:05;;;;;;;2.08;1.48;;;;;;;;;;10289526;28;20362;-85
2023/01/17 02:25:26;;;;;;;3.63;1.75;;;;;;;;;;10288231;28;20182;-85
2023/01/17 02:30:43;;;;;;;6.57;1.90;;;;;;;;;;10296547;28;20031;-86
2023/01/17 02:36:03;;;;;;;4.38;1.95;;;;;;;;;;10292278;28;20445;-87
2023/01/17 02:41:10;;;;;;;4.35;1.80;;;;;;;;;;10292385;28;20137;-86
2023/01/17 02:46:15;;;;;;;2.28;1.50;;;;;;;;;;10282957;28;20444;-84
2023/01/17 02:51:42;;;;;;;2.10;1.38;;;;;;;;;;10271836;28;20034;-83
2023/01/17 02:56:54;;;;;;;3.13;1.55;;;;;;;;;;10280634;28;20496;-84
2023/01/17 03:02:11;;;;;;;3.55;1.70;;;;;;;;;;10279638;28;20039;-84
2023/01/17 03:07:18;;;;;;;1.63;1.50;;;;;;;;;;10290672;28;20050;-84
2023/01/17 03:12:21;;;;;;;2.20;1.45;;;;;;;;;;10297802;28;20776;-87
2023/01/17 03:17:31;;;;;;;3.80;1.70;;;;;;;;;;10290987;28;20044;-87
2023/01/17 03:22:35;;;;;;;5.00;1.88;;;;;;;;;;10283115;28;20058;-85
2023/01/17 03:27:41;;;;;;;2.67;1.65;;;;;;;;;;10296892;28;20088;-85
2023/01/17 03:32:46;;;;;;;2.63;1.63;;;;;;;;;;10298587;28;20050;-84
2023/01/17 03:37:49;;;;;;;2.58;1.80;;;;;;;;;;10278130;28;20049;-85
2023/01/17 03:42:53;;;;;;;2.25;1.55;;;;;;;;;;10279872;28;20141;-84
2023/01/17 03:47:58;;;;;;;4.63;1.67;;;;;;;;;;10295446;28;20046;-83
2023/01/17 03:53:01;;;;;;;5.10;1.70;;;;;;;;;;10286025;28;20048;-86
2023/01/17 03:58:05;;;;;;;5.68;1.95;;;;;;;;;;10288431;28;20052;-88
2023/01/17 04:03:10;;;;;;;1.35;1.25;;;;;;;;;;10312873;28;20057;-89
2023/01/17 04:08:14;;;;;;;4.55;1.60;;;;;;;;;;10282062;28;20406;-86
2023/01/17 04:13:17;;;;;;;1.55;1.20;;;;;;;;;;10291757;28;20045;-89
2023/01/17 04:18:24;;;;;;;4.00;1.85;;;;;;;;;;10289432;28;20048;-85
2023/01/17 04:23:28;;;;;;;3.92;1.40;;;;;;;;;;10301676;28;20065;-84
2023/01/17 04:28:31;;;;;;;1.92;1.65;;;;;;;;;;10275707;28;20046;-83
2023/01/17 04:33:36;;;;;;;6.05;1.98;;;;;;;;;;10303361;28;20039;-86
2023/01/17 04:38:39;;;;;;;2.67;1.30;;;;;;;;;;10294832;28;20044;-85
2023/01/17 04:43:43;;;;;;;1.65;1.13;;;;;;;;;;10313581;28;20042;-88
2023/01/17 04:48:48;;;;;;;1.40;1.30;;;;;;;;;;10302614;28;20386;-86
2023/01/17 04:53:52;;;;;;;4.05;1.17;;;;;;;;;;10340487;28;20524;-85
2023/01/17 04:58:57;;;;;;;1.48;1.00;;;;;;;;;;10298814;28;20053;-85
2023/01/17 05:04:02;;;;;;;1.95;1.00;;;;;;;;;;10325581;28;20046;-85
2023/01/17 05:09:06;;;;;;;1.83;1.00;;;;;;;;;;10305606;28;20104;-85
2023/01/17 05:14:10;;;;;;;2.25;1.00;;;;;;;;;;10303853;28;20330;-85
2023/01/17 05:19:15;;;;;;;1.67;0.82;;;;;;;;;;10301910;28;20104;-86
2023/01/17 05:24:24;;;;;;;1.95;1.17;;;;;;;;;;10298478;28;20428;-87
2023/01/17 05:29:28;;;;;;;1.92;1.00;;;;;;;;;;10320226;28;20406;-85
2023/01/17 05:34:33;;;;;;;2.72;1.42;;;;;;;;;;10321871;28;20061;-87
2023/01/17 05:39:36;;;;;;;1.40;0.80;;;;;;;;;;10316288;28;20542;-86
2023/01/17 05:44:40;;;;;;;1.02;1.00;;;;;;;;;;10301138;28;20073;-87
2023/01/17 05:49:45;;;;;;;1.58;1.00;;;;;;;;;;10326501;28;20451;-86
2023/01/17 05:54:49;;;;;;;0.80;0.80;;;;;;;;;;10310812;28;20046;-86
2023/01/17 05:59:53;;;;;;;1.77;1.00;;;;;;;;;;10311161;28;20064;-85
2023/01/17 06:04:58;;;;;;;1.80;1.20;;;;;;;;;;10296268;28;20133;-83
2023/01/17 06:10:03;;;;;;;1.42;1.08;;;;;;;;;;10286063;28;20050;-83
2023/01/17 06:15:09;;;;;;;2.22;1.00;;;;;;;;;;10284838;28;20636;-83
2023/01/17 06:20:14;;;;;;;1.30;1.00;;;;;;;;;;10284717;28;20441;-83
2023/01/17 06:25:17;;;;;;;1.20;1.08;;;;;;;;;;10285917;28;20046;-84
2023/01/17 06:30:21;;;;;;;2.47;1.15;;;;;;;;;;10287138;28;20042;-83
2023/01/17 06:35:26;;;;;;;1.33;1.05;;;;;;;;;;10305324;28;20042;-89
2023/01/17 06:40:30;;;;;;;1.88;1.30;;;;;;;;;;10323845;28;20081;-85
2023/01/17 06:45:35;;;;;;;0.88;0.60;;;;;;;;;;10297915;28;20062;-83
2023/01/17 06:50:40;;;;;;;1.15;0.90;;;;;;;;;;10286966;28;20085;-83
2023/01/17 06:55:44;;;;;;;1.02;0.80;;;;;;;;;;10297729;28;20047;-83
2023/01/17 07:00:48;;;;;;;1.45;1.05;;;;;;;;;;10292462;28;20046;-88
2023/01/17 07:05:53;;;;;;;1.85;1.00;;;;;;;;;;10314203;28;20457;-86
2023/01/17 07:11:02;;;;;;;2.95;1.17;;;;;;;;;;10319640;28;20133;-86
2023/01/17 07:16:07;;;;;;;1.02;0.93;;;;;;;;;;10294969;28;20488;-87
2023/01/17 07:21:14;;;;;;;3.57;1.23;;;;;;;;;;10310812;28;20533;-89
2023/01/17 07:26:18;;;;;;;1.92;1.10;;;;;;;;;;10307761;28;20053;-86
2023/01/17 07:31:22;;;;;;;1.38;0.95;;;;;;;;;;10310645;28;20065;-86
2023/01/17 07:36:27;;;;;;;2.03;1.38;;;;;;;;;;10314448;28;20057;-88
2023/01/17 07:41:33;;;;;;;1.30;1.20;;;;;;;;;;10332144;28;20101;-88
2023/01/17 07:46:40;;;;;;;2.47;1.13;;;;;;;;;;10332637;28;20052;-88
2023/01/17 07:51:47;;;;;;;3.30;1.83;;;;;;;;;;10315123;28;20085;-86
2023/01/17 07:56:53;;;;;;;4.35;1.92;;;;;;;;;;10332119;28;20065;-86
2023/01/17 08:01:57;;;;;;;2.25;1.50;;;;;;;;;;10332125;28;20053;-87
2023/01/17 08:07:04;;;;;;;2.53;1.60;;;;;;;;;;10314549;28;20042;-85
2023/01/17 08:12:07;;;;;;;2.08;1.50;;;;;;;;;;10314376;28;20456;-85
2023/01/17 08:17:13;;;;;;;2.38;1.75;;;;;;;;;;10289976;28;20054;-83
2023/01/17 08:22:18;;;;;;;3.83;2.43;;;;;;;;;;10286638;28;20042;-86
2023/01/17 08:27:21;;;;;;;4.38;2.25;;;;;;;;;;10294361;28;20435;-84
2023/01/17 08:32:24;;;;;;;4.47;2.17;;;;;;;;;;10298322;28;20045;-84
2023/01/17 08:37:33;;;;;;;2.05;1.58;;;;;;;;;;10283265;28;20244;-84
2023/01/17 08:42:39;;;;;;;4.50;2.63;;;;;;;;;;10299975;28;20122;-84
2023/01/17 08:47:43;;;;;;;3.45;2.30;;;;;;;;;;10278790;28;20518;-84
2023/01/17 08:52:48;;;;;;;3.42;2.50;;;;;;;;;;10275172;28;20031;-84
2023/01/17 08:57:52;;;;;;;5.93;3.10;;;;;;;;;;10282834;28;20046;-83
2023/01/17 09:03:00;;;;;;;3.28;2.28;;;;;;;;;;10298066;28;20423;-87
2023/01/17 09:08:05;;;;;;;3.08;1.92;;;;;;;;;;10287171;28;20073;-86
2023/01/17 09:13:09;;;;;;;2.22;1.50;;;;;;;;;;10303642;28;20395;-87
2023/01/17 09:18:12;;;;;;;1.92;1.27;;;;;;;;;;10310145;28;20043;-89
2023/01/17 09:23:18;;;;;;;1.40;1.20;;;;;;;;;;10327983;28;20066;-89
2023/01/17 09:28:21;;;;;;;1.67;1.10;;;;;;;;;;10309810;28;20104;-87
2023/01/17 09:33:25;;;;;;;1.27;1.17;;;;;;;;;;10310238;28;20042;-86
2023/01/17 09:38:29;;;;;;;2.17;1.67;;;;;;;;;;10317632;28;20622;-85
2023/01/17 09:43:38;;;;;;;2.80;1.40;;;;;;;;;;10317999;28;20117;-86
2023/01/17 09:48:44;;;;;;;4.75;1.88;;;;;;;;;;10316886;28;20129;-86
2023/01/17 09:53:48;;;;;;;2.33;1.42;;;;;;;;;;10315738;28;20480;-86
2023/01/17 09:59:14;;;;;;;1.40;1.23;;;;;;;;;;10315950;28;20493;-86
2023/01/17 10:04:39;;;;;;;2.53;1.17;;;;;;;;;;10319923;28;20748;-86
2023/01/17 10:09:57;;;;;;;1.85;1.05;;;;;;;;;;10316891;28;20046;-86
2023/01/17 10:15:26;;;;;;;1.15;0.90;;;;;;;;;;10316604;28;20402;-87
2023/01/17 10:20:42;;;;;;;1.98;0.93;;;;;;;;;;10316088;28;20046;-89
2023/01/17 10:25:51;;;;;;;1.77;0.90;;;;;;;;;;10316563;28;20133;-87
2023/01/17 10:31:00;;;;;;;1.67;1.00;;;;;;;;;;10316053;28;20081;-89
2023/01/17 10:36:19;;;;;;;1.65;0.90;;;;;;;;;;10323705;28;20633;-89
2023/01/17 10:41:28;;;;;;;1.33;0.80;;;;;;;;;;10312335;28;20042;-84
2023/01/17 10:46:37;;;;;;;1.60;1.00;;;;;;;;;;10307332;28;20049;-87
2023/01/17 10:52:03;;;;;;;0.75;0.70;;;;;;;;;;10330305;28;20073;-87
2023/01/17 10:57:15;;;;;;;0.95;0.80;;;;;;;;;;10294324;28;20053;-84
2023/01/17 11:02:23;;;;;;;0.82;0.82;;;;;;;;;;10299579;28;20077;-86
2023/01/17 11:07:29;;;;;;;0.65;0.63;;;;;;;;;;10320458;28;20042;-87
2023/01/17 11:12:45;;;;;;;0.85;0.85;;;;;;;;;;10310049;28;20034;-84
2023/01/17 11:18:01;;;;;;;2.95;0.90;;;;;;;;;;10295888;28;20138;-87
2023/01/17 11:23:11;;;;;;;1.10;1.00;;;;;;;;;;10307824;28;20043;-87
2023/01/17 11:28:24;;;;;;;1.13;0.90;;;;;;;;;;10305143;28;20046;-86
2023/01/17 11:33:44;;;;;;;1.08;0.80;;;;;;;;;;10318025;28;20129;-86
2023/01/17 11:39:26;;;;;;;1.77;0.90;;;;;;;;;;10295995;28;20049;-87
2023/01/17 11:44:33;;;;;;;0.98;0.77;;;;;;;;;;10304255;28;20498;-84
2023/01/17 11:49:36;;;;;;;2.17;1.23;;;;;;;;;;10286760;28;20162;-84
2023/01/17 11:54:43;;;;;;;1.02;0.80;;;;;;;;;;10303676;28;20133;-87
2023/01/17 11:59:55;;;;;;;0.70;0.57;;;;;;;;;;10295107;28;20088;-89
2023/01/17 12:05:09;;;;;;;0.52;0.52;;;;;;;;;;10300372;28;20038;-87
2023/01/17 12:10:20;;;;;;;0.47;0.47;;;;;;;;;;10319000;28;20282;-85
2023/01/17 12:15:38;;;;;;;0.50;0.50;;;;;;;;;;10292506;28;20739;-87
2023/01/17 12:20:49;;;;;;;0.77;0.55;;;;;;;;;;10300623;28;20049;-88
2023/01/17 12:26:05;;;;;;;0.50;0.50;;;;;;;;;;10285756;28;20097;-84
2023/01/17 12:31:20;;;;;;;0.60;0.52;;;;;;;;;;10292821;28;20050;-84
2023/01/17 12:36:31;;;;;;;;;;;;;;;;;;10281139;28;20046;-84
2023/01/17 12:41:49;;;;;;;3.10;1.50;;;;;;;;;;10282964;28;19968;-83
2023/01/17 12:47:02;;;;;;;3.78;1.63;;;;;;;;;;10282971;28;20575;-84
2023/01/17 12:52:15;;;;;;;2.60;1.27;;;;;;;;;;10288269;28;20050;-88
2023/01/17 12:57:29;;;;;;;1.10;0.77;;;;;;;;;;10289969;28;20039;-82
2023/01/17 13:03:23;;;;;;;1.40;0.85;;;;;;;;;;10289949;28;20058;-84
2023/01/17 13:09:21;;;;;;;2.28;1.02;;;;;;;;;;10310248;28;20034;-85
2023/01/17 13:14:46;;;;;;;1.13;0.70;;;;;;;;;;10269838;28;20039;-84
2023/01/17 13:19:57;;;;;;;1.10;0.88;;;;;;;;;;10290565;28;20042;-85
2023/01/17 13:25:13;;;;;;;0.95;0.60;;;;;;;;;;10276130;28;20046;-85
2023/01/17 13:30:45;;;;;;;0.50;0.40;;;;;;;;;;10291074;28;20046;-85
2023/01/17 13:36:01;;;;;;;0.35;0.35;;;;;;;;;;10268210;28;20466;-84
2023/01/17 13:41:18;;;;;;;0.88;0.50;;;;;;;;;;10278495;28;20536;-85
2023/01/17 13:46:22;;;;;;;0.38;0.38;;;;;;;;;;10272773;28;20042;-86
2023/01/17 13:52:08;;;;;;;0.40;0.40;;;;;;;;;;10305736;28;20046;-88
2023/01/17 13:57:39;;;;;;;0.55;0.50;;;;;;;;;;10280087;28;20042;-85
2023/01/17 14:02:45;;;;;;;0.47;0.47;;;;;;;;;;10285528;28;20145;-89
2023/01/17 14:07:56;;;;;;;0.63;0.47;;;;;;;;;;10298514;28;20121;-90
2023/01/17 14:13:01;;;;;;;0.80;0.40;;;;;;;;;;10302043;28;20474;-88
2023/01/17 14:18:07;;;;;;;0.40;0.40;;;;;;;;;;10305051;28;20043;-87
2023/01/17 14:23:32;;;;;;;0.40;0.40;;;;;;;;;;10295593;28;20046;-86
2023/01/17 14:28:36;;;;;;;0.30;0.30;;;;;;;;;;10305635;28;20042;-86
2023/01/17 14:33:41;;;;;;;0.40;0.40;;;;;;;;;;10309977;28;20047;-87
2023/01/17 14:38:47;;;;;;;0.30;0.30;;;;;;;;;;10286397;28;20046;-85
2023/01/17 14:43:51;;;;;;;1.00;0.40;;;;;;;;;;10287427;28;20046;-90
2023/01/17 14:49:01;;;;;;;0.30;0.30;;;;;;;;;;10302259;28;20061;-89
2023/01/17 14:54:18;;;;;;;0.82;0.60;;;;;;;;;;10297349;28;20101;-85
2023/01/17 14:59:22;;;;;;;1.77;1.00;;;;;;;;;;10298535;28;20053;-87
2023/01/17 15:04:29;;;;;;;1.58;1.02;;;;;;;;;;10279640;28;20042;-84
2023/01/17 15:09:36;;;;;;;2.33;1.50;;;;;;;;;;10323028;28;20073;-86
2023/01/17 15:14:43;;;;;;;1.20;0.85;;;;;;;;;;10304117;28;20046;-87
2023/01/17 15:19:50;;;;;;;4.03;0.70;;;;;;;;;;10315728;28;20480;-88
2023/01/17 15:24:58;;;;;;;2.72;1.17;;;;;;;;;;10304700;28;20070;-85
2023/01/17 15:30:03;;;;;;;1.23;0.85;;;;;;;;;;10285193;28;20454;-85
2023/01/17 15:35:16;;;;;;;0.80;0.80;;;;;;;;;;10281771;28;20050;-84
2023/01/17 15:40:23;;;;;;;1.23;0.70;;;;;;;;;;10305510;28;20035;-87
2023/01/17 15:45:30;;;;;;;1.42;1.00;;;;;;;;;;10281731;28;20055;-84
2023/01/17 15:50:39;;;;;;;1.85;1.00;;;;;;;;;;10310339;28;20050;-88
2023/01/17 15:55:47;;;;;;;1.30;0.93;;;;;;;;;;10318111;28;20053;-86
2023/01/17 16:00:53;;;;;;;0.90;0.90;;;;;;;;;;10316228;28;20050;-86
2023/01/17 16:05:59;;;;;;;1.40;1.10;;;;;;;;;;10309550;28;20409;-87
2023/01/17 16:11:05;;;;;;;2.90;1.70;;;;;;;;;;10311585;28;20504;-87
2023/01/17 16:16:10;;;;;;;;;;;;;;;;;;10327433;28;20457;-89
2023/01/17 16:21:19;;;;;;;3.15;2.15;;;;;;;;;;10324933;28;19921;-86
2023/01/17 16:26:27;;;;;;;4.05;2.47;;;;;;;;;;10282193;28;20707;-85
2023/01/17 16:31:32;;;;;;;4.53;2.60;;;;;;;;;;10308793;28;20129;-85
2023/01/17 16:36:35;;;;;;;4.47;2.40;;;;;;;;;;10308775;28;20117;-87
2023/01/17 16:41:43;;;;;;;4.07;2.05;;;;;;;;;;10301563;28;20034;-86
2023/01/17 16:47:00;;;;;;;5.05;2.50;;;;;;;;;;10242336;28;20046;-90
2023/01/17 16:52:04;;;;;;;7.40;3.97;;;;;;;;;;10295473;28;20134;-90
2023/01/17 16:57:10;;;;;;;9.10;4.38;;;;;;;;;;10306954;28;20114;-90
2023/01/17 17:02:14;;;;;;;;;;;;;;;;;;10312318;28;20054;-85
2023/01/17 17:07:21;;;;;;;10.37;4.43;;;;;;;;;;10297329;28;19922;-83
2023/01/17 17:12:26;;;;;;;9.47;4.70;;;;;;;;;;10280291;28;20077;-83
2023/01/17 17:17:30;;;;;;;9.13;4.07;;;;;;;;;;10288775;28;20046;-89
2023/01/17 17:22:34;;;;;;;9.27;4.25;;;;;;;;;;10288029;28;20116;-83
2023/01/17 17:27:39;;;;;;;13.13;6.20;;;;;;;;;;10277641;28;20130;-83
2023/01/17 17:32:46;;;;;;;16.05;5.63;;;;;;;;;;10273958;28;20145;-83
2023/01/17 17:37:49;;;;;;;13.02;5.65;;;;;;;;;;10287294;28;20042;-85
2023/01/17 17:42:54;;;;;;;14.93;7.32;;;;;;;;;;10286970;28;20077;-85
2023/01/17 17:47:58;;;;;;;13.65;6.45;;;;;;;;;;10289482;28;20493;-84
2023/01/17 17:53:01;;;;;;;13.23;6.88;;;;;;;;;;10300799;28;20042;-84
2023/01/17 17:58:06;;;;;;;9.93;5.03;;;;;;;;;;10289946;28;20057;-84
2023/01/17 18:03:09;;;;;;;7.07;3.80;;;;;;;;;;10299769;28;20053;-83
2023/01/17 18:08:13;;;;;;;5.72;3.22;;;;;;;;;;10300073;28;20042;-85
2023/01/17 18:13:20;;;;;;;3.30;2.53;;;;;;;;;;10309026;28;20509;-85
2023/01/17 18:18:23;;;;;;;6.22;3.40;;;;;;;;;;10294806;28;20299;-82
2023/01/17 18:23:27;;;;;;;5.55;3.35;;;;;;;;;;10292519;28;20054;-87
2023/01/17 18:28:32;;;;;;;11.88;4.30;;;;;;;;;;10308056;28;20707;-82
2023/01/17 18:33:37;;;;;;;6.53;3.60;;;;;;;;;;10284245;28;20060;-82
2023/01/17 18:38:42;;;;;;;5.05;3.38;;;;;;;;;;10288678;28;20069;-82
2023/01/17 18:43:47;;;;;;;5.63;3.47;;;;;;;;;;10301819;28;20294;-83
2023/01/17 18:48:51;;;;;;;6.85;3.28;;;;;;;;;;10295481;28;20042;-85
2023/01/17 18:53:54;;;;;;;6.40;3.88;;;;;;;;;;10294279;28;20214;-83
2023/01/17 18:59:00;;;;;;;4.47;3.08;;;;;;;;;;10289509;28;20428;-85
2023/01/17 19:04:05;;;;;;;6.45;3.13;;;;;;;;;;10288493;28;20129;-84
2023/01/17 19:09:21;;;;;;;5.30;2.85;;;;;;;;;;10284901;28;20919;-82
2023/01/17 19:14:29;;;;;;;6.30;3.20;;;;;;;;;;10277140;28;20105;-82
2023/01/17 19:19:32;;;;;;;4.43;2.72;;;;;;;;;;10290479;28;20053;-86
2023/01/17 19:24:37;;;;;;;6.10;3.05;;;;;;;;;;10285673;28;20046;-84
2023/01/17 19:29:42;;;;;;;8.45;3.70;;;;;;;;;;10289327;28;20042;-87
2023/01/17 19:34:46;;;;;;;12.00;5.30;;;;;;;;;;10289756;28;20042;-84
2023/01/17 19:39:49;;;;;;;10.32;5.00;;;;;;;;;;10286682;28;20293;-84
2023/01/17 19:44:54;;;;;;;10.93;5.07;;;;;;;;;;10281031;28;20667;-84
2023/01/17 19:49:58;;;;;;;8.80;5.05;;;;;;;;;;10278516;28;20042;-82
2023/01/17 19:55:02;;;;;;;7.90;4.65;;;;;;;;;;10264297;28;20055;-82
2023/01/17 20:00:12;;;;;;;7.45;4.50;;;;;;;;;;10270160;28;20054;-82
2023/01/17 20:05:19;;;;;;;7.10;3.55;;;;;;;;;;10285561;28;20257;-82
2023/01/17 20:10:24;;;;;;;8.98;4.93;;;;;;;;;;10271193;28;20072;-82
2023/01/17 20:15:29;;;;;;;8.73;4.78;;;;;;;;;;10260756;28;20054;-81
2023/01/17 20:20:35;;;;;;;14.02;6.25;;;;;;;;;;10281794;28;20043;-82
2023/01/17 20:25:51;;;;;;;14.75;7.15;;;;;;;;;;10270082;28;20049;-81
2023/01/17 20:31:03;;;;;;;15.23;7.53;;;;;;;;;;10278294;28;20057;-86
2023/01/17 20:36:09;;;;;;;18.67;8.27;;;;;;;;;;10280550;28;20069;-85
2023/01/17 20:41:15;;;;;;;21.63;9.75;;;;;;;;;;10283172;28;20046;-84
2023/01/17 20:46:22;;;;;;;16.60;7.73;;;;;;;;;;10266100;28;20070;-81
2023/01/17 20:51:27;;;;;;;11.75;6.53;;;;;;;;;;10291934;28;20384;-83
2023/01/17 20:56:33;;;;;;;9.75;4.85;;;;;;;;;;10304318;28;20145;-88
2023/01/17 21:01:38;;;;;;;9.30;4.45;;;;;;;;;;10318951;28;20045;-84
2023/01/17 21:06:43;;;;;;;12.18;6.70;;;;;;;;;;10287110;28;20061;-87
2023/01/17 21:11:48;;;;;;;10.65;5.28;;;;;;;;;;10294617;28;20042;-85
2023/01/17 21:16:53;;;;;;;7.32;4.20;;;;;;;;;;10270150;28;20494;-82
2023/01/17 21:21:57;;;;;;;4.85;3.28;;;;;;;;;;10295796;28;20053;-82
2023/01/17 21:27:01;;;;;;;5.85;3.55;;;;;;;;;;10272608;28;20043;-82
2023/01/17 21:32:07;;;;;;;7.13;4.25;;;;;;;;;;10266575;28;20130;-83
2023/01/17 21:37:12;;;;;;;;;;;;;;;;;;10281232;28;20051;-82
2023/01/17 21:42:16;;;;;;;3.97;2.40;;;;;;;;;;10281075;28;20356;-82
2023/01/17 21:47:21;;;;;;;5.80;3.03;;;;;;;;;;10278983;28;20042;-82
2023/01/17 21:52:24;;;;;;;4.88;2.88;;;;;;;;;;10284107;28;20093;-82
2023/01/17 22:02:50;;;;;;;4.85;2.83;;;;;;;;;;10283732;28;20042;-82
2023/01/17 22:08:11;;;;;;;4.60;2.72;;;;;;;;;;10283129;28;20050;-83
2023/01/17 22:13:16;;;;;;;6.60;2.97;;;;;;;;;;10303106;28;20310;-83
2023/01/17 22:18:20;;;;;;;9.43;3.95;;;;;;;;;;10281466;28;20069;-83
2023/01/17 22:23:24;;;;;;;12.05;5.68;;;;;;;;;;10303047;28;20041;-82
2023/01/17 22:28:30;;;;;;;13.25;6.72;;;;;;;;;;10304068;28;20038;-82
2023/01/17 22:33:35;;;;;;;11.52;5.80;;;;;;;;;;10286910;28;20524;-84
2023/01/17 22:38:39;;;;;;;12.05;5.78;;;;;;;;;;10303700;28;20061;-83
2023/01/17 22:43:45;;;;;;;12.48;6.93;;;;;;;;;;10287011;28;20046;-83
2023/01/17 22:48:51;;;;;;;12.88;6.32;;;;;;;;;;10287707;28;20046;-83
2023/01/17 22:53:56;;;;;;;12.73;5.77;;;;;;;;;;10288713;28;20046;-85
2023/01/17 22:59:10;;;;;;;9.93;5.10;;;;;;;;;;10294753;28;20042;-85
2023/01/17 23:04:16;;;;;;;10.50;5.80;;;;;;;;;;10294083;28;20042;-85
2023/01/17 23:09:19;;;;;;;8.55;5.28;;;;;;;;;;10284190;28;20043;-83
2023/01/17 23:14:25;;;;;;;9.63;4.93;;;;;;;;;;10280731;28;20073;-82
2023/01/17 23:19:33;;;;;;;7.05;4.22;;;;;;;;;;10278919;28;20062;-83
2023/01/17 23:24:38;;;;;;;7.07;4.15;;;;;;;;;;10282091;28;20057;-83
2023/01/17 23:29:42;;;;;;;8.82;4.78;;;;;;;;;;10281233;28;20050;-83
2023/01/17 23:34:50;;;;;;;11.23;5.13;;;;;;;;;;10280436;28;20042;-83
2023/01/17 23:39:54;;;;;;;11.10;5.63;;;;;;;;;;10280385;28;20038;-82
2023/01/17 23:44:57;;;;;;;9.82;4.72;;;;;;;;;;10281562;28;20073;-82
2023/01/17 23:50:01;;;;;;;6.38;3.72;;;;;;;;;;10282321;28;20050;-82
2023/01/17 23:55:07;;;;;;;8.43;3.97;;;;;;;;;;10280086;28;20070;-82
